Time;durP1;ratioP1;P1;durP2;ratioP2;P2;SDS_P1;SDS_P2;PMS_P1;PMS_P2;Temp;Humidity;BMP_temperature;BMP_pressure;BME280_temperature;BME280_humidity;BME280_pressure;Samples;Min_cycle;Max_cycle;Signal;HPM_P1;HPM_P2
2021/12/12 00:02:11;;;;;;;28.30;10.13;;;6.70;99.90;;;;;;5096266;28;20625;-73
2021/12/12 00:04:39;;;;;;;28.90;9.23;;;6.70;99.90;;;;;;5093397;28;20067;-74
2021/12/12 00:07:12;;;;;;;25.48;9.25;;;6.70;99.90;;;;;;5096053;28;20035;-72
2021/12/12 00:09:44;;;;;;;30.13;10.00;;;6.70;99.90;;;;;;5097255;28;20082;-73
2021/12/12 00:12:17;;;;;;;33.17;11.73;;;6.70;99.90;;;;;;5102124;28;20031;-76
2021/12/12 00:14:44;;;;;;;32.20;11.27;;;6.70;99.90;;;;;;5103590;28;20102;-72
2021/12/12 00:17:11;;;;;;;27.63;9.57;;;6.70;99.90;;;;;;5098425;28;20032;-75
2021/12/12 00:19:38;;;;;;;26.27;9.05;;;6.70;99.90;;;;;;5080472;28;20025;-72
2021/12/12 00:22:17;;;;;;;29.70;10.02;;;6.80;99.90;;;;;;5092151;28;20036;-72
2021/12/12 00:24:43;;;;;;;22.10;8.07;;;6.70;99.90;;;;;;5074944;28;20024;-74
2021/12/12 00:27:09;;;;;;;23.17;8.85;;;6.70;99.90;;;;;;5086313;28;20061;-74
2021/12/12 00:29:36;;;;;;;22.95;9.13;;;6.80;99.90;;;;;;5092132;28;20024;-75
2021/12/12 00:32:06;;;;;;;26.95;10.35;;;6.80;99.90;;;;;;5093662;28;20028;-76
2021/12/12 00:34:42;;;;;;;24.25;9.25;;;6.80;99.90;;;;;;5097504;28;20134;-74
2021/12/12 00:37:11;;;;;;;29.38;10.18;;;6.80;99.90;;;;;;5095054;28;20099;-73
2021/12/12 00:39:39;;;;;;;25.23;8.30;;;6.80;99.90;;;;;;5093550;28;20028;-76
2021/12/12 00:42:16;;;;;;;22.15;7.65;;;6.80;99.90;;;;;;5092123;28;20043;-73
2021/12/12 00:44:45;;;;;;;30.70;9.73;;;6.80;99.90;;;;;;5100006;28;20034;-75
2021/12/12 00:47:12;;;;;;;32.33;11.75;;;6.80;99.90;;;;;;5108391;28;20467;-74
2021/12/12 00:49:40;;;;;;;28.10;9.32;;;6.80;99.90;;;;;;5093914;28;20028;-72
2021/12/12 00:52:09;;;;;;;25.25;8.93;;;6.80;99.90;;;;;;5075828;28;20025;-73
2021/12/12 00:54:36;;;;;;;23.10;7.97;;;6.80;99.90;;;;;;5105475;28;20035;-75
2021/12/12 00:57:05;;;;;;;34.30;11.68;;;6.80;99.90;;;;;;5112253;28;20078;-73
2021/12/12 00:59:31;;;;;;;35.67;11.43;;;6.80;99.90;;;;;;5097058;28;20471;-72
2021/12/12 01:01:59;;;;;;;22.85;9.20;;;6.90;99.90;;;;;;5097098;28;20088;-75
2021/12/12 01:04:42;;;;;;;21.92;8.23;;;6.90;99.90;;;;;;5111412;28;20054;-75
2021/12/12 01:07:17;;;;;;;25.80;10.40;;;6.90;99.90;;;;;;5113271;28;20027;-75
2021/12/12 01:09:50;;;;;;;27.23;9.18;;;6.90;99.90;;;;;;5098005;28;20036;-76
2021/12/12 01:12:22;;;;;;;18.83;6.78;;;6.90;99.90;;;;;;5093982;28;20096;-74
2021/12/12 01:14:51;;;;;;;;;;;6.90;99.90;;;;;;5092166;28;20032;-74
2021/12/12 01:17:23;;;;;;;21.73;7.80;;;6.90;99.90;;;;;;5099474;28;19934;-74
2021/12/12 01:19:58;;;;;;;29.05;10.45;;;6.80;99.90;;;;;;5085607;28;20024;-74
2021/12/12 01:22:34;;;;;;;30.40;11.20;;;6.80;99.90;;;;;;5083408;28;20040;-72
2021/12/12 01:25:17;;;;;;;25.20;8.80;;;6.80;99.90;;;;;;5098988;28;20666;-74
2021/12/12 01:27:42;;;;;;;22.65;8.40;;;6.80;99.90;;;;;;5112390;28;20035;-74
2021/12/12 01:30:10;;;;;;;29.15;11.10;;;6.90;99.90;;;;;;5112080;28;20421;-74
2021/12/12 01:32:37;;;;;;;25.92;8.57;;;6.80;99.90;;;;;;5111268;28;20032;-74
2021/12/12 01:35:13;;;;;;;24.30;11.13;;;6.90;99.90;;;;;;5093933;28;20108;-74
2021/12/12 01:37:42;;;;;;;31.50;12.15;;;6.90;99.90;;;;;;5110616;28;20107;-72
2021/12/12 01:40:20;;;;;;;26.58;10.57;;;6.90;99.90;;;;;;5073642;28;20044;-76
2021/12/12 01:43:09;;;;;;;32.15;11.20;;;6.80;99.90;;;;;;5076877;28;20085;-72
2021/12/12 01:45:42;;;;;;;24.83;10.07;;;6.90;99.90;;;;;;5084827;28;20043;-75
2021/12/12 01:48:31;;;;;;;29.60;10.25;;;6.90;99.90;;;;;;5081544;28;20456;-73
2021/12/12 01:51:00;;;;;;;33.90;12.68;;;6.90;99.90;;;;;;5097487;28;20024;-77
2021/12/12 01:53:29;;;;;;;26.10;10.63;;;6.90;99.90;;;;;;5097423;28;20021;-76
2021/12/12 01:56:02;;;;;;;21.55;8.30;;;6.90;99.90;;;;;;5111883;28;20066;-73
2021/12/12 01:58:32;;;;;;;20.02;8.25;;;6.90;99.90;;;;;;5113627;28;20055;-75
2021/12/12 02:01:10;;;;;;;23.67;10.18;;;6.90;99.90;;;;;;5105012;28;20023;-76
2021/12/12 02:03:41;;;;;;;32.20;12.82;;;7.00;99.90;;;;;;5078938;28;20425;-74
2021/12/12 02:06:10;;;;;;;25.30;9.90;;;7.00;99.90;;;;;;5112287;28;20036;-72
2021/12/12 02:08:38;;;;;;;26.70;11.95;;;7.00;99.90;;;;;;5113036;28;20032;-74
2021/12/12 02:11:09;;;;;;;15.23;7.28;;;7.00;99.90;;;;;;5100205;28;20027;-75
2021/12/12 02:13:41;;;;;;;17.52;8.38;;;7.10;99.90;;;;;;5101980;28;20047;-75
2021/12/12 02:16:09;;;;;;;16.45;6.88;;;7.10;99.90;;;;;;5103426;28;20020;-76
2021/12/12 02:18:39;;;;;;;26.77;9.68;;;7.20;99.90;;;;;;5093003;28;20028;-75
2021/12/12 02:21:19;;;;;;;22.42;9.27;;;7.20;99.90;;;;;;5087186;28;20028;-75
2021/12/12 02:37:29;;;;;;;11.50;5.45;;;7.40;99.90;;;;;;5103409;28;20050;-74
2021/12/12 02:39:56;;;;;;;19.30;8.38;;;7.40;99.90;;;;;;5106262;28;20047;-75
2021/12/12 02:42:23;;;;;;;24.20;9.15;;;7.50;99.90;;;;;;5082823;28;20046;-72
2021/12/12 02:44:55;;;;;;;23.33;9.32;;;7.50;99.90;;;;;;5107811;28;20051;-74
2021/12/12 02:47:31;;;;;;;19.55;7.75;;;7.50;99.90;;;;;;5106762;28;20051;-76
2021/12/12 02:50:09;;;;;;;21.83;9.18;;;7.50;99.90;;;;;;5094794;28;20390;-74
2021/12/12 02:52:37;;;;;;;22.15;10.52;;;7.60;99.90;;;;;;5069117;28;20021;-75
2021/12/12 02:55:26;;;;;;;25.92;10.65;;;7.60;99.90;;;;;;5083836;28;20533;-74
2021/12/12 02:57:57;;;;;;;25.20;12.18;;;7.70;99.90;;;;;;5095913;28;20028;-75
2021/12/12 03:00:29;;;;;;;27.00;11.63;;;7.70;99.90;;;;;;5095985;28;20020;-72
2021/12/12 03:02:58;;;;;;;;;;;7.80;99.90;;;;;;5096421;28;20376;-72
2021/12/12 03:05:28;;;;;;;22.98;11.30;;;7.90;99.90;;;;;;5106011;28;19923;-72
2021/12/12 03:07:54;;;;;;;21.33;10.75;;;7.80;99.90;;;;;;5078958;28;20438;-74
2021/12/12 03:10:28;;;;;;;19.15;9.98;;;7.80;99.90;;;;;;5096906;28;20358;-72
2021/12/12 03:12:54;;;;;;;25.67;11.52;;;7.80;99.90;;;;;;5102979;28;20059;-75
2021/12/12 03:15:34;;;;;;;22.98;11.45;;;7.80;99.90;;;;;;5101643;28;20031;-75
2021/12/12 03:18:03;;;;;;;25.83;12.02;;;7.80;99.90;;;;;;5103271;28;20035;-76
2021/12/12 03:20:34;;;;;;;19.13;9.82;;;7.80;99.90;;;;;;5103939;28;20388;-74
2021/12/12 03:23:28;;;;;;;28.27;14.73;;;7.80;99.90;;;;;;5096309;28;20579;-73
2021/12/12 03:26:05;;;;;;;21.45;10.23;;;7.80;99.90;;;;;;5087440;28;20384;-73
2021/12/12 03:28:33;;;;;;;25.27;12.50;;;7.90;99.90;;;;;;5109874;28;20038;-73
2021/12/12 03:31:03;;;;;;;30.77;14.93;;;7.90;99.90;;;;;;5078491;28;20123;-74
2021/12/12 03:33:32;;;;;;;34.42;15.23;;;7.90;99.90;;;;;;5095055;28;20073;-73
2021/12/12 03:36:00;;;;;;;32.65;14.38;;;7.90;99.90;;;;;;5099872;28;20024;-74
2021/12/12 03:38:32;;;;;;;29.08;12.38;;;8.00;99.90;;;;;;5095668;28;20516;-75
2021/12/12 03:41:06;;;;;;;23.23;10.63;;;8.00;99.90;;;;;;5081079;28;20104;-74
2021/12/12 03:43:33;;;;;;;32.83;14.82;;;8.10;99.90;;;;;;5093375;28;20040;-74
2021/12/12 03:46:00;;;;;;;34.28;14.75;;;8.00;99.90;;;;;;5098530;28;20420;-72
2021/12/12 03:48:31;;;;;;;36.70;17.00;;;8.10;99.90;;;;;;5095292;28;20508;-76
2021/12/12 03:51:00;;;;;;;27.58;13.07;;;8.10;99.90;;;;;;5095504;28;20521;-76
2021/12/12 03:53:28;;;;;;;33.55;15.77;;;8.10;99.90;;;;;;5096617;28;20033;-74
2021/12/12 03:55:55;;;;;;;24.95;11.63;;;8.10;99.90;;;;;;5094629;28;20024;-73
2021/12/12 03:58:21;;;;;;;33.78;16.30;;;8.20;99.90;;;;;;5093681;28;20024;-76
2021/12/12 04:01:01;;;;;;;33.40;14.88;;;8.20;99.90;;;;;;5090403;28;20028;-74
2021/12/12 04:03:27;;;;;;;32.72;14.50;;;8.20;99.90;;;;;;5083915;28;20047;-73
2021/12/12 04:05:58;;;;;;;33.33;16.40;;;8.30;99.90;;;;;;5094878;28;20056;-74
2021/12/12 04:08:37;;;;;;;33.33;14.65;;;8.30;99.90;;;;;;5094409;28;20039;-72
2021/12/12 04:11:05;;;;;;;32.47;15.68;;;8.30;99.90;;;;;;5094736;28;20020;-75
2021/12/12 04:13:36;;;;;;;32.90;16.75;;;8.30;99.90;;;;;;5094688;28;20052;-76
2021/12/12 04:16:02;;;;;;;30.30;13.73;;;8.40;99.90;;;;;;5094237;28;20134;-73
2021/12/12 04:18:28;;;;;;;39.47;17.08;;;8.40;99.90;;;;;;5093864;28;20068;-74
2021/12/12 04:20:55;;;;;;;35.47;14.80;;;8.40;99.90;;;;;;5094931;28;20056;-75
2021/12/12 04:23:25;;;;;;;32.95;16.48;;;8.40;99.90;;;;;;5094210;28;20048;-73
2021/12/12 04:25:51;;;;;;;36.75;17.48;;;8.50;99.90;;;;;;5094376;28;20467;-76
2021/12/12 04:28:18;;;;;;;36.63;16.90;;;8.50;99.90;;;;;;5093584;28;20059;-74
2021/12/12 04:30:44;;;;;;;37.88;18.25;;;8.60;99.90;;;;;;5094573;28;20129;-73
2021/12/12 04:33:10;;;;;;;37.80;17.50;;;8.50;99.90;;;;;;5094013;28;20483;-74
2021/12/12 04:35:37;;;;;;;30.23;15.13;;;8.60;99.90;;;;;;5094412;28;20076;-74
2021/12/12 04:38:05;;;;;;;35.00;16.80;;;8.60;99.90;;;;;;5094245;28;20023;-74
2021/12/12 04:40:34;;;;;;;31.67;15.98;;;8.70;99.90;;;;;;5092648;28;20471;-73
2021/12/12 04:43:00;;;;;;;39.97;16.52;;;8.70;99.90;;;;;;5092595;28;20044;-75
2021/12/12 04:45:42;;;;;;;32.80;16.20;;;8.70;99.90;;;;;;5097030;28;20028;-74
2021/12/12 04:51:15;;;;;;;28.42;13.38;;;8.80;99.90;;;;;;5087725;28;20039;-73
2021/12/12 04:54:21;;;;;;;30.30;15.90;;;8.80;99.90;;;;;;5091461;28;20028;-73
2021/12/12 04:57:00;;;;;;;27.88;12.73;;;8.80;99.90;;;;;;5098134;28;20099;-74
2021/12/12 04:59:34;;;;;;;32.28;15.15;;;8.80;99.90;;;;;;5093732;28;20028;-75
2021/12/12 05:02:09;;;;;;;33.97;15.00;;;8.80;99.90;;;;;;5094556;28;20024;-75
2021/12/12 05:04:46;;;;;;;34.65;14.68;;;8.80;99.90;;;;;;5095170;28;20094;-72
2021/12/12 05:07:15;;;;;;;33.92;17.20;;;8.90;99.90;;;;;;5094292;28;20031;-76
2021/12/12 05:10:00;;;;;;;32.38;14.27;;;8.90;99.90;;;;;;5081854;28;20028;-73
2021/12/12 05:12:40;;;;;;;28.95;12.80;;;9.00;99.90;;;;;;5093438;28;20028;-72
2021/12/12 05:15:20;;;;;;;40.78;16.23;;;9.00;99.90;;;;;;5100808;28;20028;-74
2021/12/12 05:17:55;;;;;;;34.88;15.73;;;9.00;99.90;;;;;;5093779;28;20060;-75
2021/12/12 05:20:32;;;;;;;34.30;17.15;;;9.00;99.90;;;;;;5093957;28;20034;-72
2021/12/12 05:23:02;;;;;;;37.38;16.25;;;9.10;99.90;;;;;;5099507;28;20368;-73
2021/12/12 05:25:35;;;;;;;32.72;13.68;;;9.10;99.90;;;;;;5088359;28;20387;-74
2021/12/12 05:28:02;;;;;;;39.55;16.10;;;9.20;99.90;;;;;;5089685;28;20058;-72
2021/12/12 05:30:33;;;;;;;34.83;14.98;;;9.20;99.90;;;;;;5098159;28;20123;-75
2021/12/12 05:33:01;;;;;;;40.03;16.95;;;9.20;99.90;;;;;;5093800;28;20032;-72
2021/12/12 05:35:33;;;;;;;39.58;16.90;;;9.20;99.90;;;;;;5093775;28;20039;-73
2021/12/12 05:37:59;;;;;;;;;;;9.30;99.90;;;;;;5079444;28;20028;-75
2021/12/12 05:40:30;;;;;;;40.33;18.48;;;9.30;99.90;;;;;;5098755;28;20351;-74
2021/12/12 05:42:59;;;;;;;36.97;15.13;;;9.30;99.90;;;;;;5096879;28;20065;-74
2021/12/12 05:45:26;;;;;;;38.38;17.52;;;9.30;99.90;;;;;;5098951;28;20035;-75
2021/12/12 05:47:52;;;;;;;50.97;18.70;;;9.40;99.90;;;;;;5096063;28;20019;-73
2021/12/12 05:50:19;;;;;;;41.25;17.00;;;9.40;99.90;;;;;;5093468;28;20078;-72
2021/12/12 05:52:46;;;;;;;36.10;15.88;;;9.50;99.90;;;;;;5092011;28;20088;-75
2021/12/12 05:55:15;;;;;;;37.75;17.17;;;9.40;99.90;;;;;;5096057;28;20052;-72
2021/12/12 05:57:43;;;;;;;41.40;16.08;;;9.50;99.90;;;;;;5109112;28;20395;-75
2021/12/12 06:00:14;;;;;;;34.55;14.63;;;9.50;99.90;;;;;;5108415;28;20027;-74
2021/12/12 06:02:41;;;;;;;37.67;16.65;;;9.60;99.90;;;;;;5095512;28;20123;-73
2021/12/12 06:05:08;;;;;;;43.10;17.60;;;9.60;99.90;;;;;;5095198;28;20048;-75
2021/12/12 06:07:35;;;;;;;35.65;15.77;;;9.60;99.90;;;;;;5087669;28;20028;-75
2021/12/12 06:10:08;;;;;;;35.33;17.67;;;9.70;99.90;;;;;;5092543;28;20036;-75
2021/12/12 06:12:35;;;;;;;39.05;15.95;;;9.60;99.90;;;;;;5094213;28;20379;-71
2021/12/12 06:15:05;;;;;;;38.67;17.75;;;9.70;99.90;;;;;;5097178;28;20032;-73
2021/12/12 06:17:31;;;;;;;35.55;16.02;;;9.70;99.90;;;;;;5099059;28;20047;-75
2021/12/12 06:19:58;;;;;;;35.55;13.75;;;9.70;99.90;;;;;;5092727;28;20032;-73
2021/12/12 06:22:24;;;;;;;32.78;14.30;;;9.80;99.90;;;;;;5092766;28;20078;-73
2021/12/12 06:24:50;;;;;;;29.60;13.25;;;9.80;99.90;;;;;;5093864;28;20024;-73
2021/12/12 06:27:18;;;;;;;34.55;13.85;;;9.80;99.90;;;;;;5096835;28;20059;-75
2021/12/12 06:29:47;;;;;;;34.67;14.27;;;9.90;99.90;;;;;;5093217;28;20020;-74
2021/12/12 06:32:14;;;;;;;32.85;15.88;;;9.90;99.90;;;;;;5092640;28;20055;-75
2021/12/12 06:34:40;;;;;;;33.25;14.18;;;9.90;99.90;;;;;;5093818;28;20036;-75
2021/12/12 06:37:06;;;;;;;42.08;14.88;;;10.00;99.90;;;;;;5093425;28;20028;-76
2021/12/12 06:39:32;;;;;;;39.53;15.73;;;10.00;99.90;;;;;;5093529;28;20495;-75
2021/12/12 06:41:59;;;;;;;41.13;14.02;;;10.10;99.90;;;;;;5095905;28;20036;-75
2021/12/12 06:44:25;;;;;;;37.00;14.85;;;10.20;99.90;;;;;;5076353;28;20031;-72
2021/12/12 06:46:53;;;;;;;39.50;13.15;;;10.20;99.90;;;;;;5092885;28;20038;-75
2021/12/12 06:49:20;;;;;;;41.40;16.25;;;10.20;99.90;;;;;;5099317;28;20062;-72
2021/12/12 06:51:50;;;;;;;42.05;15.40;;;10.30;99.90;;;;;;5097875;28;20115;-73
2021/12/12 06:54:20;;;;;;;37.25;14.52;;;10.30;99.90;;;;;;5092604;28;20020;-76
2021/12/12 06:56:48;;;;;;;43.00;13.82;;;10.30;99.90;;;;;;5074637;28;20344;-72
2021/12/12 06:59:14;;;;;;;37.33;12.15;;;10.40;99.90;;;;;;5093606;28;20012;-74
2021/12/12 07:01:40;;;;;;;34.17;13.10;;;10.40;99.90;;;;;;5099235;28;20107;-76
2021/12/12 07:04:09;;;;;;;38.90;14.00;;;10.40;99.90;;;;;;5107441;28;20130;-72
2021/12/12 07:06:37;;;;;;;40.05;13.20;;;10.40;99.90;;;;;;5100081;28;20042;-76
2021/12/12 07:09:08;;;;;;;36.92;13.23;;;10.50;99.90;;;;;;5092569;28;20119;-73
2021/12/12 07:11:36;;;;;;;34.50;13.75;;;10.50;99.90;;;;;;5092426;28;20020;-74
2021/12/12 07:14:02;;;;;;;35.63;12.40;;;10.50;99.90;;;;;;5093802;28;20024;-74
2021/12/12 07:16:28;;;;;;;40.88;12.95;;;10.60;99.90;;;;;;5092372;28;20452;-74
2021/12/12 07:18:55;;;;;;;36.20;10.73;;;10.60;99.90;;;;;;5109429;28;20032;-76
2021/12/12 07:21:23;;;;;;;29.73;10.13;;;10.60;99.90;;;;;;5089036;28;20035;-73
2021/12/12 07:23:49;;;;;;;36.58;12.40;;;10.60;99.90;;;;;;5109166;28;20032;-74
2021/12/12 07:26:16;;;;;;;27.85;9.85;;;10.60;99.90;;;;;;5099403;28;20068;-75
2021/12/12 07:28:43;;;;;;;46.30;12.18;;;10.60;99.90;;;;;;5096449;28;20117;-74
2021/12/12 07:31:20;;;;;;;33.60;13.02;;;10.60;99.90;;;;;;5095913;28;20169;-74
2021/12/12 07:33:50;;;;;;;37.58;11.57;;;10.60;99.90;;;;;;5105578;28;20032;-76
2021/12/12 07:36:18;;;;;;;36.03;11.02;;;10.60;99.90;;;;;;5100192;28;20033;-73
2021/12/12 07:38:47;;;;;;;40.95;11.65;;;10.70;99.90;;;;;;5091372;28;20035;-74
2021/12/12 07:41:17;;;;;;;36.60;11.20;;;10.70;99.90;;;;;;5082926;28;20028;-75
2021/12/12 07:43:43;;;;;;;43.38;12.02;;;10.70;99.90;;;;;;5092296;28;20043;-75
2021/12/12 07:46:08;;;;;;;37.15;11.05;;;10.70;99.90;;;;;;5078628;28;20036;-75
2021/12/12 07:48:35;;;;;;;37.67;11.50;;;10.70;99.90;;;;;;5095595;28;20024;-72
2021/12/12 07:51:02;;;;;;;38.78;11.10;;;10.70;99.90;;;;;;5099701;28;20086;-73
2021/12/12 07:53:29;;;;;;;36.95;11.27;;;10.70;99.90;;;;;;5093608;28;20024;-75
2021/12/12 07:55:56;;;;;;;39.70;11.77;;;10.80;99.90;;;;;;5095432;28;20541;-74
2021/12/12 07:58:24;;;;;;;29.45;9.18;;;10.70;99.90;;;;;;5105038;28;20027;-75
2021/12/12 08:00:52;;;;;;;33.83;9.85;;;10.70;99.90;;;;;;5101460;28;20063;-73
2021/12/12 08:03:22;;;;;;;33.20;9.88;;;10.70;99.90;;;;;;5107543;28;20075;-76
2021/12/12 08:05:48;;;;;;;28.73;8.45;;;10.70;99.90;;;;;;5081321;28;20043;-75
2021/12/12 08:08:15;;;;;;;32.00;8.88;;;10.70;99.90;;;;;;5111253;28;20032;-76
2021/12/12 08:10:44;;;;;;;33.67;10.00;;;10.70;99.90;;;;;;5114031;28;20391;-74
2021/12/12 08:13:12;;;;;;;29.90;8.57;;;10.70;99.90;;;;;;5108483;28;20072;-74
2021/12/12 08:15:39;;;;;;;24.88;7.65;;;10.70;99.90;;;;;;5103277;28;20028;-75
2021/12/12 08:18:07;;;;;;;29.60;8.13;;;10.70;99.90;;;;;;5095575;28;20491;-75
2021/12/12 08:20:34;;;;;;;35.42;9.15;;;10.70;99.90;;;;;;5094085;28;20527;-76
2021/12/12 08:23:00;;;;;;;27.23;9.05;;;10.70;99.90;;;;;;5096403;28;20088;-74
2021/12/12 08:25:27;;;;;;;35.97;7.30;;;10.80;99.90;;;;;;5113438;28;20032;-74
2021/12/12 08:28:00;;;;;;;29.63;8.25;;;10.70;99.90;;;;;;5099521;28;20028;-76
2021/12/12 08:30:28;;;;;;;29.83;8.80;;;10.80;99.90;;;;;;5113191;28;20023;-74
2021/12/12 08:32:54;;;;;;;25.83;6.95;;;10.80;99.90;;;;;;5094189;28;20039;-75
2021/12/12 08:35:22;;;;;;;21.85;6.95;;;10.80;99.90;;;;;;5096227;28;20074;-73
2021/12/12 08:37:49;;;;;;;27.90;7.70;;;10.80;99.90;;;;;;5094317;28;20036;-75
2021/12/12 08:40:23;;;;;;;22.80;7.22;;;10.80;99.90;;;;;;5108915;28;20093;-73
2021/12/12 08:42:51;;;;;;;21.45;6.60;;;10.80;99.90;;;;;;5099657;28;20077;-76
2021/12/12 08:45:21;;;;;;;19.88;5.97;;;10.90;99.90;;;;;;5100908;28;20020;-75
2021/12/12 08:47:48;;;;;;;12.45;4.93;;;10.80;99.90;;;;;;5106472;28;20027;-75
2021/12/12 08:50:23;;;;;;;17.33;5.53;;;10.80;99.90;;;;;;5113123;28;20020;-75
2021/12/12 08:52:49;;;;;;;14.20;5.22;;;10.80;99.90;;;;;;5094062;28;20024;-76
2021/12/12 08:55:20;;;;;;;14.57;5.78;;;10.90;99.90;;;;;;5095217;28;20472;-74
2021/12/12 08:57:58;;;;;;;15.00;5.43;;;10.90;99.90;;;;;;5093701;28;20430;-75
2021/12/12 09:00:27;;;;;;;14.77;5.40;;;10.90;99.90;;;;;;5093030;28;20048;-73
2021/12/12 09:02:55;;;;;;;15.30;5.15;;;10.90;99.90;;;;;;5093600;28;20034;-74
2021/12/12 09:05:27;;;;;;;14.63;5.63;;;11.00;99.90;;;;;;5091680;28;20051;-75
2021/12/12 09:08:00;;;;;;;20.17;5.30;;;11.00;99.90;;;;;;5092640;28;20031;-75
2021/12/12 09:10:31;;;;;;;16.50;5.00;;;11.00;99.90;;;;;;5091857;28;20438;-77
2021/12/12 09:13:02;;;;;;;16.27;4.97;;;11.00;99.90;;;;;;5093420;28;20032;-74
2021/12/12 09:15:41;;;;;;;10.70;3.88;;;11.00;99.90;;;;;;5093527;28;20272;-75
2021/12/12 09:18:16;;;;;;;13.43;4.00;;;11.00;99.90;;;;;;5094807;28;20031;-76
2021/12/12 09:21:05;;;;;;;10.23;3.15;;;11.00;99.90;;;;;;5092625;28;20089;-74
2021/12/12 09:23:37;;;;;;;7.63;3.00;;;11.00;99.90;;;;;;5092673;28;20479;-73
2021/12/12 09:26:07;;;;;;;6.07;3.00;;;10.90;99.90;;;;;;5092384;28;20038;-77
2021/12/12 09:28:44;;;;;;;8.13;2.97;;;10.90;99.90;;;;;;5093419;28;20054;-74
2021/12/12 09:31:21;;;;;;;7.07;2.88;;;10.90;99.90;;;;;;5075909;28;20080;-75
2021/12/12 09:33:58;;;;;;;10.02;3.75;;;11.00;99.90;;;;;;5083636;28;20035;-75
2021/12/12 09:36:51;;;;;;;7.18;2.72;;;10.90;99.90;;;;;;5089758;28;20020;-76
2021/12/12 09:39:27;;;;;;;8.13;2.80;;;11.00;99.90;;;;;;5090065;28;20035;-74
2021/12/12 09:42:15;;;;;;;9.13;3.45;;;11.00;99.90;;;;;;5092794;28;20166;-77
2021/12/12 09:45:26;;;;;;;10.27;3.95;;;11.00;99.90;;;;;;5092916;28;20038;-74
2021/12/12 09:51:17;;;;;;;10.18;3.90;;;11.00;99.90;;;;;;5088964;28;20036;-76
2021/12/12 09:54:04;;;;;;;10.02;4.05;;;11.00;99.90;;;;;;5079277;28;20047;-72
2021/12/12 09:56:56;;;;;;;9.27;3.53;;;11.00;99.90;;;;;;5113633;28;20550;-74
2021/12/12 09:59:42;;;;;;;11.02;3.67;;;11.00;99.90;;;;;;5099615;28;20028;-76
2021/12/12 10:02:35;;;;;;;11.07;3.88;;;11.00;99.90;;;;;;5084457;28;20028;-73
2021/12/12 10:05:12;;;;;;;10.60;4.18;;;11.00;99.90;;;;;;5093883;28;20048;-76
2021/12/12 10:08:10;;;;;;;15.77;4.80;;;11.00;99.90;;;;;;5075101;28;20024;-75
2021/12/12 10:11:01;;;;;;;15.18;4.38;;;11.10;99.90;;;;;;5093370;28;20067;-73
2021/12/12 10:13:46;;;;;;;14.60;4.93;;;11.10;99.90;;;;;;5093423;28;20024;-74
2021/12/12 10:16:27;;;;;;;14.23;4.55;;;11.00;99.90;;;;;;5093294;28;20024;-76
2021/12/12 10:19:03;;;;;;;14.73;5.20;;;11.10;99.90;;;;;;5093178;28;20021;-76
2021/12/12 10:21:33;;;;;;;21.38;6.05;;;11.10;99.90;;;;;;5091968;28;20035;-73
2021/12/12 10:24:31;;;;;;;18.35;6.10;;;11.10;99.90;;;;;;5092545;28;20047;-73
2021/12/12 10:27:02;;;;;;;18.35;7.47;;;11.10;99.90;;;;;;5092889;28;20036;-74
2021/12/12 10:29:37;;;;;;;25.90;8.32;;;11.20;99.90;;;;;;5080180;28;20077;-76
2021/12/12 10:32:11;;;;;;;20.73;7.72;;;11.20;99.90;;;;;;5093296;28;20020;-75
2021/12/12 10:34:43;;;;;;;25.17;8.02;;;11.20;99.90;;;;;;5093183;28;20475;-75
2021/12/12 10:37:13;;;;;;;22.85;8.23;;;11.20;99.90;;;;;;5075207;28;20024;-75
2021/12/12 10:39:40;;;;;;;22.67;7.40;;;11.20;99.90;;;;;;5093130;28;20028;-73
2021/12/12 10:42:14;;;;;;;23.02;7.32;;;11.20;99.90;;;;;;5092909;28;20034;-75
2021/12/12 10:44:43;;;;;;;22.60;7.65;;;11.20;99.90;;;;;;5093934;28;20036;-73
2021/12/12 10:47:14;;;;;;;15.93;5.85;;;11.20;99.90;;;;;;5099036;28;20023;-73
2021/12/12 10:50:10;;;;;;;23.23;8.20;;;11.30;99.90;;;;;;5107283;28;20032;-73
2021/12/12 10:52:50;;;;;;;22.52;7.38;;;11.40;99.90;;;;;;5080539;28;20121;-74
2021/12/12 10:55:31;;;;;;;19.88;6.95;;;11.40;99.90;;;;;;5095469;28;20036;-74
2021/12/12 10:58:14;;;;;;;21.10;6.80;;;11.40;99.90;;;;;;5095960;28;20032;-74
2021/12/12 11:00:47;;;;;;;20.70;7.28;;;11.50;99.90;;;;;;5097069;28;20040;-75
2021/12/12 11:03:25;;;;;;;21.23;7.32;;;11.50;99.90;;;;;;5094565;28;20415;-76
2021/12/12 11:06:05;;;;;;;30.60;9.48;;;11.50;99.90;;;;;;5095837;28;20040;-73
2021/12/12 11:08:43;;;;;;;20.13;7.45;;;11.50;99.90;;;;;;5095993;28;20028;-75
2021/12/12 11:11:20;;;;;;;22.52;8.50;;;11.50;99.90;;;;;;5093997;28;20424;-74
2021/12/12 11:13:58;;;;;;;27.52;8.00;;;11.40;99.90;;;;;;5094537;28;20025;-74
2021/12/12 11:16:52;;;;;;;22.80;7.50;;;11.50;99.90;;;;;;5095094;28;20028;-73
2021/12/12 11:19:29;;;;;;;24.08;7.05;;;11.50;99.90;;;;;;5095658;28;20035;-75
2021/12/12 11:22:07;;;;;;;22.60;6.95;;;11.60;99.90;;;;;;5098317;28;20017;-74
2021/12/12 11:24:37;;;;;;;21.23;7.03;;;11.60;99.90;;;;;;5088328;28;20078;-73
2021/12/12 11:27:09;;;;;;;22.05;6.60;;;11.60;99.90;;;;;;5097015;28;20083;-74
2021/12/12 11:29:42;;;;;;;21.02;7.00;;;11.60;99.90;;;;;;5094566;28;20035;-75
2021/12/12 11:32:13;;;;;;;22.08;7.00;;;11.60;99.90;;;;;;5093161;28;20029;-76
2021/12/12 11:34:47;;;;;;;15.88;5.60;;;11.60;99.90;;;;;;5091035;28;20074;-75
2021/12/12 11:37:17;;;;;;;19.08;6.05;;;11.70;99.90;;;;;;5087403;28;20032;-76
2021/12/12 11:39:56;;;;;;;21.83;6.75;;;11.60;99.90;;;;;;5086883;28;20068;-75
2021/12/12 11:42:27;;;;;;;18.77;5.50;;;11.70;99.90;;;;;;5086610;28;20040;-74
2021/12/12 11:45:08;;;;;;;19.92;6.10;;;11.60;99.90;;;;;;5083621;28;20036;-74
2021/12/12 11:47:50;;;;;;;18.55;5.97;;;11.60;99.90;;;;;;5093789;28;20032;-73
2021/12/12 11:50:29;;;;;;;15.80;5.43;;;11.60;99.90;;;;;;5093914;28;20472;-73
2021/12/12 11:52:59;;;;;;;24.60;6.32;;;11.70;99.90;;;;;;5084608;28;20035;-73
2021/12/12 11:55:36;;;;;;;25.20;6.03;;;11.70;99.90;;;;;;5092166;28;20058;-74
2021/12/12 11:58:18;;;;;;;22.98;6.38;;;11.70;99.90;;;;;;5090242;28;20368;-74
2021/12/12 12:00:49;;;;;;;;;;;11.70;99.90;;;;;;5079686;28;20026;-75
2021/12/12 12:03:33;;;;;;;24.63;6.57;;;11.70;99.90;;;;;;5091173;28;19916;-73
2021/12/12 12:06:28;;;;;;;21.83;5.75;;;11.70;99.90;;;;;;5094688;28;20048;-75
2021/12/12 12:09:25;;;;;;;29.40;7.07;;;11.70;99.90;;;;;;5087832;28;20107;-73
2021/12/12 12:12:09;;;;;;;28.23;6.70;;;11.70;99.90;;;;;;5076338;28;20039;-74
2021/12/12 12:14:56;;;;;;;28.17;7.55;;;11.80;99.90;;;;;;5074587;28;20021;-75
2021/12/12 12:17:46;;;;;;;29.40;6.82;;;11.80;99.90;;;;;;5093740;28;20495;-75
2021/12/12 12:20:21;;;;;;;28.35;6.50;;;11.80;99.90;;;;;;5094793;28;20024;-73
2021/12/12 12:23:17;;;;;;;32.22;6.97;;;11.90;99.90;;;;;;5093555;28;20361;-74
2021/12/12 12:28:57;;;;;;;38.80;8.00;;;11.90;99.90;;;;;;5092752;28;20112;-72
2021/12/12 12:31:36;;;;;;;29.35;7.60;;;11.90;99.90;;;;;;5092622;28;20024;-73
2021/12/12 12:34:38;;;;;;;32.85;6.75;;;12.00;99.90;;;;;;5093621;28;20519;-74
2021/12/12 12:37:42;;;;;;;23.35;6.30;;;11.90;99.90;;;;;;5091877;28;20490;-75
2021/12/12 12:40:28;;;;;;;32.38;6.45;;;12.00;99.90;;;;;;5082193;28;20494;-73
2021/12/12 12:43:31;;;;;;;30.13;7.18;;;12.00;99.90;;;;;;5088184;28;20032;-73
2021/12/12 12:46:35;;;;;;;32.35;7.22;;;12.00;99.90;;;;;;5082340;28;20388;-74
2021/12/12 12:49:38;;;;;;;30.98;6.57;;;12.00;99.90;;;;;;5094295;28;20020;-74
2021/12/12 12:52:03;;;;;;;40.45;7.38;;;12.00;99.90;;;;;;5092901;28;20028;-75
2021/12/12 12:54:46;;;;;;;27.83;7.03;;;12.00;99.90;;;;;;5094200;28;20035;-73
2021/12/12 12:57:31;;;;;;;40.97;7.75;;;12.00;99.90;;;;;;5094546;28;20035;-76
2021/12/12 13:00:07;;;;;;;34.00;6.68;;;12.00;99.90;;;;;;5076207;28;20028;-76
2021/12/12 13:03:00;;;;;;;30.73;6.50;;;12.00;99.90;;;;;;5091391;28;20028;-76
2021/12/12 13:05:54;;;;;;;23.65;6.20;;;12.00;99.90;;;;;;5093390;28;20044;-76
2021/12/12 13:08:50;;;;;;;24.02;5.45;;;12.10;99.90;;;;;;5092592;28;20042;-75
2021/12/12 13:11:22;;;;;;;23.27;5.85;;;12.10;99.90;;;;;;5090728;28;20867;-73
2021/12/12 13:14:17;;;;;;;20.70;5.22;;;12.00;99.90;;;;;;5093447;28;20169;-74
2021/12/12 13:17:12;;;;;;;32.55;5.65;;;12.10;99.90;;;;;;5093297;28;20020;-76
2021/12/12 13:19:54;;;;;;;20.40;5.53;;;12.10;99.90;;;;;;5091147;28;20055;-74
2021/12/12 13:22:34;;;;;;;22.30;5.50;;;12.10;99.90;;;;;;5093605;28;20035;-73
2021/12/12 13:25:14;;;;;;;21.05;4.50;;;12.10;99.90;;;;;;5085766;28;20045;-74
2021/12/12 13:28:16;;;;;;;17.10;4.85;;;12.10;99.90;;;;;;5078219;28;20027;-75
2021/12/12 13:31:00;;;;;;;20.10;3.92;;;12.10;99.90;;;;;;5093057;28;20036;-73
2021/12/12 13:33:34;;;;;;;18.52;4.07;;;12.10;99.90;;;;;;5093190;28;20455;-74
2021/12/12 13:36:00;;;;;;;15.23;3.55;;;12.10;99.90;;;;;;5091765;28;20031;-75